sensor_id;sensor_type;location;lat;lon;timestamp;P1;durP1;ratioP1;P2;durP2;ratioP2
53145;SDS011;39042;53.150;5.898;2024-01-07T00:00:27;10.82;;;5.53;;
53145;SDS011;39042;53.150;5.898;2024-01-07T00:02:53;7.93;;;4.67;;
53145;SDS011;39042;53.150;5.898;2024-01-07T00:05:19;11.43;;;5.27;;
53145;SDS011;39042;53.150;5.898;2024-01-07T00:07:44;11.23;;;4.80;;
53145;SDS011;39042;53.150;5.898;2024-01-07T00:10:10;7.32;;;3.95;;
53145;SDS011;39042;53.150;5.898;2024-01-07T00:12:36;12.43;;;5.70;;
53145;SDS011;39042;53.150;5.898;2024-01-07T00:15:02;9.10;;;5.17;;
53145;SDS011;39042;53.150;5.898;2024-01-07T00:17:28;11.68;;;6.22;;
53145;SDS011;39042;53.150;5.898;2024-01-07T00:19:54;11.20;;;5.63;;
53145;SDS011;39042;53.150;5.898;2024-01-07T00:22:20;13.07;;;5.10;;
53145;SDS011;39042;53.150;5.898;2024-01-07T00:24:45;10.80;;;5.90;;
53145;SDS011;39042;53.150;5.898;2024-01-07T00:27:11;11.10;;;5.87;;
53145;SDS011;39042;53.150;5.898;2024-01-07T00:29:37;11.57;;;5.43;;
53145;SDS011;39042;53.150;5.898;2024-01-07T00:32:03;10.67;;;5.70;;
53145;SDS011;39042;53.150;5.898;2024-01-07T00:34:29;12.50;;;5.28;;
53145;SDS011;39042;53.150;5.898;2024-01-07T00:36:55;12.30;;;6.10;;
53145;SDS011;39042;53.150;5.898;2024-01-07T00:39:21;10.60;;;5.43;;
53145;SDS011;39042;53.150;5.898;2024-01-07T00:41:46;9.83;;;4.83;;
53145;SDS011;39042;53.150;5.898;2024-01-07T00:44:12;9.90;;;5.27;;
53145;SDS011;39042;53.150;5.898;2024-01-07T00:46:38;10.50;;;4.47;;
53145;SDS011;39042;53.150;5.898;2024-01-07T00:49:04;10.93;;;3.80;;
53145;SDS011;39042;53.150;5.898;2024-01-07T00:51:30;11.27;;;5.13;;
53145;SDS011;39042;53.150;5.898;2024-01-07T00:53:55;10.70;;;4.90;;
53145;SDS011;39042;53.150;5.898;2024-01-07T00:56:21;8.60;;;3.47;;
53145;SDS011;39042;53.150;5.898;2024-01-07T00:58:51;9.23;;;5.30;;
53145;SDS011;39042;53.150;5.898;2024-01-07T01:01:17;9.03;;;4.80;;
53145;SDS011;39042;53.150;5.898;2024-01-07T01:03:43;10.43;;;4.30;;
53145;SDS011;39042;53.150;5.898;2024-01-07T01:06:09;9.50;;;4.80;;
53145;SDS011;39042;53.150;5.898;2024-01-07T01:08:35;11.00;;;5.67;;
53145;SDS011;39042;53.150;5.898;2024-01-07T01:11:01;12.88;;;6.15;;
53145;SDS011;39042;53.150;5.898;2024-01-07T01:13:26;12.47;;;6.43;;
53145;SDS011;39042;53.150;5.898;2024-01-07T01:15:52;11.40;;;5.50;;
53145;SDS011;39042;53.150;5.898;2024-01-07T01:18:20;11.45;;;5.75;;
53145;SDS011;39042;53.150;5.898;2024-01-07T01:20:46;8.90;;;4.50;;
53145;SDS011;39042;53.150;5.898;2024-01-07T01:23:12;10.93;;;6.07;;
53145;SDS011;39042;53.150;5.898;2024-01-07T01:25:38;12.33;;;6.73;;
53145;SDS011;39042;53.150;5.898;2024-01-07T01:28:05;12.38;;;6.40;;
53145;SDS011;39042;53.150;5.898;2024-01-07T01:30:31;10.18;;;5.50;;
53145;SDS011;39042;53.150;5.898;2024-01-07T01:32:57;13.35;;;7.05;;
53145;SDS011;39042;53.150;5.898;2024-01-07T01:35:23;11.98;;;6.88;;
53145;SDS011;39042;53.150;5.898;2024-01-07T01:37:48;13.50;;;6.97;;
53145;SDS011;39042;53.150;5.898;2024-01-07T01:40:16;15.23;;;7.35;;
53145;SDS011;39042;53.150;5.898;2024-01-07T01:42:45;14.32;;;7.43;;
53145;SDS011;39042;53.150;5.898;2024-01-07T01:45:13;11.05;;;6.30;;
53145;SDS011;39042;53.150;5.898;2024-01-07T01:47:40;12.70;;;6.72;;
53145;SDS011;39042;53.150;5.898;2024-01-07T01:50:07;10.65;;;5.93;;
53145;SDS011;39042;53.150;5.898;2024-01-07T01:52:33;13.05;;;7.13;;
53145;SDS011;39042;53.150;5.898;2024-01-07T01:55:01;12.57;;;7.25;;
53145;SDS011;39042;53.150;5.898;2024-01-07T01:57:28;10.02;;;4.95;;
53145;SDS011;39042;53.150;5.898;2024-01-07T01:59:59;13.63;;;6.82;;
53145;SDS011;39042;53.150;5.898;2024-01-07T02:02:33;15.60;;;7.13;;
53145;SDS011;39042;53.150;5.898;2024-01-07T02:05:00;16.33;;;7.05;;
53145;SDS011;39042;53.150;5.898;2024-01-07T02:07:27;12.55;;;5.82;;
53145;SDS011;39042;53.150;5.898;2024-01-07T02:09:54;11.93;;;6.32;;
53145;SDS011;39042;53.150;5.898;2024-01-07T02:12:20;12.57;;;6.10;;
53145;SDS011;39042;53.150;5.898;2024-01-07T02:14:46;10.97;;;5.97;;
53145;SDS011;39042;53.150;5.898;2024-01-07T02:17:12;9.97;;;5.13;;
53145;SDS011;39042;53.150;5.898;2024-01-07T02:19:37;10.97;;;6.27;;
53145;SDS011;39042;53.150;5.898;2024-01-07T02:22:03;7.47;;;4.47;;
53145;SDS011;39042;53.150;5.898;2024-01-07T02:24:29;11.50;;;5.97;;
53145;SDS011;39042;53.150;5.898;2024-01-07T02:29:22;9.73;;;5.07;;
53145;SDS011;39042;53.150;5.898;2024-01-07T02:31:48;12.70;;;5.63;;
53145;SDS011;39042;53.150;5.898;2024-01-07T02:34:13;8.10;;;3.95;;
53145;SDS011;39042;53.150;5.898;2024-01-07T02:36:39;10.93;;;5.05;;
53145;SDS011;39042;53.150;5.898;2024-01-07T02:39:05;6.33;;;3.27;;
53145;SDS011;39042;53.150;5.898;2024-01-07T02:41:31;8.23;;;4.37;;
53145;SDS011;39042;53.150;5.898;2024-01-07T02:43:57;9.50;;;4.00;;
53145;SDS011;39042;53.150;5.898;2024-01-07T02:46:23;8.27;;;4.40;;
53145;SDS011;39042;53.150;5.898;2024-01-07T02:51:15;7.80;;;4.18;;
53145;SDS011;39042;53.150;5.898;2024-01-07T02:53:41;6.03;;;2.83;;
53145;SDS011;39042;53.150;5.898;2024-01-07T02:56:07;8.93;;;4.40;;
53145;SDS011;39042;53.150;5.898;2024-01-07T03:00:59;8.73;;;4.32;;
53145;SDS011;39042;53.150;5.898;2024-01-07T03:03:25;8.77;;;4.30;;
53145;SDS011;39042;53.150;5.898;2024-01-07T03:05:51;7.13;;;3.83;;
53145;SDS011;39042;53.150;5.898;2024-01-07T03:08:17;6.73;;;3.63;;
53145;SDS011;39042;53.150;5.898;2024-01-07T03:10:43;7.77;;;3.50;;
53145;SDS011;39042;53.150;5.898;2024-01-07T03:13:09;6.22;;;3.15;;
53145;SDS011;39042;53.150;5.898;2024-01-07T03:15:34;8.10;;;3.90;;
53145;SDS011;39042;53.150;5.898;2024-01-07T03:18:00;5.63;;;3.23;;
53145;SDS011;39042;53.150;5.898;2024-01-07T03:20:26;10.73;;;4.13;;
53145;SDS011;39042;53.150;5.898;2024-01-07T03:22:52;4.72;;;2.92;;
53145;SDS011;39042;53.150;5.898;2024-01-07T03:25:18;6.20;;;2.78;;
53145;SDS011;39042;53.150;5.898;2024-01-07T03:27:44;11.63;;;4.00;;
53145;SDS011;39042;53.150;5.898;2024-01-07T03:30:10;7.60;;;3.70;;
53145;SDS011;39042;53.150;5.898;2024-01-07T03:32:36;5.97;;;3.20;;
53145;SDS011;39042;53.150;5.898;2024-01-07T03:35:02;7.70;;;3.30;;
53145;SDS011;39042;53.150;5.898;2024-01-07T03:37:28;4.18;;;2.47;;
53145;SDS011;39042;53.150;5.898;2024-01-07T03:39:54;5.17;;;2.27;;
53145;SDS011;39042;53.150;5.898;2024-01-07T03:42:20;5.70;;;2.83;;
53145;SDS011;39042;53.150;5.898;2024-01-07T03:44:46;3.97;;;2.20;;
53145;SDS011;39042;53.150;5.898;2024-01-07T03:47:11;6.47;;;2.30;;
53145;SDS011;39042;53.150;5.898;2024-01-07T03:49:37;4.83;;;2.77;;
53145;SDS011;39042;53.150;5.898;2024-01-07T03:52:05;5.37;;;2.80;;
53145;SDS011;39042;53.150;5.898;2024-01-07T03:54:31;4.72;;;2.40;;
53145;SDS011;39042;53.150;5.898;2024-01-07T03:56:57;4.63;;;2.50;;
53145;SDS011;39042;53.150;5.898;2024-01-07T03:59:23;5.80;;;2.70;;
53145;SDS011;39042;53.150;5.898;2024-01-07T04:01:50;6.35;;;2.40;;
53145;SDS011;39042;53.150;5.898;2024-01-07T04:04:18;7.50;;;2.65;;
53145;SDS011;39042;53.150;5.898;2024-01-07T04:06:44;6.37;;;2.03;;
53145;SDS011;39042;53.150;5.898;2024-01-07T04:09:09;2.57;;;1.63;;
53145;SDS011;39042;53.150;5.898;2024-01-07T04:11:39;3.87;;;1.17;;
53145;SDS011;39042;53.150;5.898;2024-01-07T04:14:06;4.72;;;2.03;;
53145;SDS011;39042;53.150;5.898;2024-01-07T04:16:31;2.90;;;1.53;;
53145;SDS011;39042;53.150;5.898;2024-01-07T04:18:57;4.10;;;2.37;;
53145;SDS011;39042;53.150;5.898;2024-01-07T04:21:23;5.07;;;2.00;;
53145;SDS011;39042;53.150;5.898;2024-01-07T04:23:49;5.73;;;2.70;;
53145;SDS011;39042;53.150;5.898;2024-01-07T04:26:15;5.10;;;1.40;;
53145;SDS011;39042;53.150;5.898;2024-01-07T04:28:41;4.20;;;1.17;;
53145;SDS011;39042;53.150;5.898;2024-01-07T04:33:33;5.03;;;2.30;;
53145;SDS011;39042;53.150;5.898;2024-01-07T04:35:59;3.00;;;1.07;;
53145;SDS011;39042;53.150;5.898;2024-01-07T04:38:29;2.35;;;0.98;;
53145;SDS011;39042;53.150;5.898;2024-01-07T04:40:55;3.60;;;1.23;;
53145;SDS011;39042;53.150;5.898;2024-01-07T04:43:20;3.13;;;1.60;;
53145;SDS011;39042;53.150;5.898;2024-01-07T04:45:46;6.87;;;1.47;;
53145;SDS011;39042;53.150;5.898;2024-01-07T04:48:13;3.35;;;1.10;;
53145;SDS011;39042;53.150;5.898;2024-01-07T04:50:42;5.18;;;2.13;;
53145;SDS011;39042;53.150;5.898;2024-01-07T04:53:08;3.83;;;1.17;;
53145;SDS011;39042;53.150;5.898;2024-01-07T04:55:34;3.83;;;1.63;;
53145;SDS011;39042;53.150;5.898;2024-01-07T05:00:26;3.97;;;2.05;;
53145;SDS011;39042;53.150;5.898;2024-01-07T05:02:52;3.65;;;1.90;;
53145;SDS011;39042;53.150;5.898;2024-01-07T05:05:18;4.17;;;1.30;;
53145;SDS011;39042;53.150;5.898;2024-01-07T05:07:44;5.23;;;1.53;;
53145;SDS011;39042;53.150;5.898;2024-01-07T05:10:10;4.73;;;1.67;;
53145;SDS011;39042;53.150;5.898;2024-01-07T05:12:36;3.20;;;1.53;;
53145;SDS011;39042;53.150;5.898;2024-01-07T05:15:02;1.73;;;0.87;;
53145;SDS011;39042;53.150;5.898;2024-01-07T05:17:28;2.72;;;1.38;;
53145;SDS011;39042;53.150;5.898;2024-01-07T05:19:54;4.50;;;1.90;;
53145;SDS011;39042;53.150;5.898;2024-01-07T05:22:21;6.67;;;1.57;;
53145;SDS011;39042;53.150;5.898;2024-01-07T05:27:13;2.05;;;0.70;;
53145;SDS011;39042;53.150;5.898;2024-01-07T05:29:38;3.22;;;1.23;;
53145;SDS011;39042;53.150;5.898;2024-01-07T05:32:04;2.87;;;0.87;;
53145;SDS011;39042;53.150;5.898;2024-01-07T05:34:31;1.80;;;0.88;;
53145;SDS011;39042;53.150;5.898;2024-01-07T05:36:57;2.53;;;1.40;;
53145;SDS011;39042;53.150;5.898;2024-01-07T05:39:23;3.50;;;0.90;;
53145;SDS011;39042;53.150;5.898;2024-01-07T05:41:49;3.67;;;1.07;;
53145;SDS011;39042;53.150;5.898;2024-01-07T05:44:14;6.37;;;1.00;;
53145;SDS011;39042;53.150;5.898;2024-01-07T05:46:40;3.17;;;1.07;;
53145;SDS011;39042;53.150;5.898;2024-01-07T05:49:06;1.52;;;0.75;;
53145;SDS011;39042;53.150;5.898;2024-01-07T05:51:33;2.70;;;0.60;;
53145;SDS011;39042;53.150;5.898;2024-01-07T05:53:59;2.20;;;0.60;;
53145;SDS011;39042;53.150;5.898;2024-01-07T05:56:25;3.10;;;1.30;;
53145;SDS011;39042;53.150;5.898;2024-01-07T05:58:51;2.08;;;0.70;;
53145;SDS011;39042;53.150;5.898;2024-01-07T06:01:20;3.13;;;0.67;;
53145;SDS011;39042;53.150;5.898;2024-01-07T06:03:46;1.55;;;0.73;;
53145;SDS011;39042;53.150;5.898;2024-01-07T06:06:13;3.58;;;1.10;;
53145;SDS011;39042;53.150;5.898;2024-01-07T06:08:40;1.42;;;0.55;;
53145;SDS011;39042;53.150;5.898;2024-01-07T06:11:07;2.05;;;0.70;;
53145;SDS011;39042;53.150;5.898;2024-01-07T06:13:33;2.55;;;0.47;;
53145;SDS011;39042;53.150;5.898;2024-01-07T06:15:59;2.37;;;0.83;;
53145;SDS011;39042;53.150;5.898;2024-01-07T06:18:25;3.33;;;1.37;;
53145;SDS011;39042;53.150;5.898;2024-01-07T06:20:51;2.47;;;0.60;;
53145;SDS011;39042;53.150;5.898;2024-01-07T06:23:16;3.63;;;0.73;;
53145;SDS011;39042;53.150;5.898;2024-01-07T06:25:43;3.45;;;0.50;;
53145;SDS011;39042;53.150;5.898;2024-01-07T06:28:09;1.73;;;0.50;;
53145;SDS011;39042;53.150;5.898;2024-01-07T06:30:37;1.55;;;0.50;;
53145;SDS011;39042;53.150;5.898;2024-01-07T06:33:03;1.93;;;0.50;;
53145;SDS011;39042;53.150;5.898;2024-01-07T06:35:30;1.63;;;0.35;;
53145;SDS011;39042;53.150;5.898;2024-01-07T06:37:56;0.60;;;0.27;;
53145;SDS011;39042;53.150;5.898;2024-01-07T06:40:22;1.90;;;0.50;;
53145;SDS011;39042;53.150;5.898;2024-01-07T06:42:48;3.75;;;0.90;;
53145;SDS011;39042;53.150;5.898;2024-01-07T06:45:14;1.63;;;0.45;;
53145;SDS011;39042;53.150;5.898;2024-01-07T06:47:41;2.35;;;0.60;;
53145;SDS011;39042;53.150;5.898;2024-01-07T06:50:07;2.33;;;0.40;;
53145;SDS011;39042;53.150;5.898;2024-01-07T06:52:34;2.80;;;0.50;;
53145;SDS011;39042;53.150;5.898;2024-01-07T06:54:59;1.10;;;0.43;;
53145;SDS011;39042;53.150;5.898;2024-01-07T06:57:25;2.03;;;0.70;;
53145;SDS011;39042;53.150;5.898;2024-01-07T06:59:51;2.13;;;0.57;;
53145;SDS011;39042;53.150;5.898;2024-01-07T07:02:17;3.33;;;0.60;;
53145;SDS011;39042;53.150;5.898;2024-01-07T07:04:45;2.97;;;0.82;;
53145;SDS011;39042;53.150;5.898;2024-01-07T07:07:10;2.27;;;0.60;;
53145;SDS011;39042;53.150;5.898;2024-01-07T07:09:36;3.00;;;0.83;;
53145;SDS011;39042;53.150;5.898;2024-01-07T07:12:02;2.20;;;0.50;;
53145;SDS011;39042;53.150;5.898;2024-01-07T07:14:28;1.23;;;0.55;;
53145;SDS011;39042;53.150;5.898;2024-01-07T07:16:54;1.40;;;0.87;;
53145;SDS011;39042;53.150;5.898;2024-01-07T07:19:19;1.93;;;0.50;;
53145;SDS011;39042;53.150;5.898;2024-01-07T07:21:45;3.23;;;0.80;;
53145;SDS011;39042;53.150;5.898;2024-01-07T07:24:11;2.40;;;0.67;;
53145;SDS011;39042;53.150;5.898;2024-01-07T07:26:37;2.83;;;0.80;;
53145;SDS011;39042;53.150;5.898;2024-01-07T07:29:06;1.13;;;0.40;;
53145;SDS011;39042;53.150;5.898;2024-01-07T07:31:34;2.97;;;0.77;;
53145;SDS011;39042;53.150;5.898;2024-01-07T07:34:02;4.70;;;2.50;;
53145;SDS011;39042;53.150;5.898;2024-01-07T07:36:29;2.88;;;0.50;;
53145;SDS011;39042;53.150;5.898;2024-01-07T07:38:55;2.23;;;0.43;;
53145;SDS011;39042;53.150;5.898;2024-01-07T07:41:20;4.50;;;0.60;;
53145;SDS011;39042;53.150;5.898;2024-01-07T07:43:46;4.20;;;0.73;;
53145;SDS011;39042;53.150;5.898;2024-01-07T07:46:12;2.03;;;0.77;;
53145;SDS011;39042;53.150;5.898;2024-01-07T07:48:38;2.35;;;0.50;;
53145;SDS011;39042;53.150;5.898;2024-01-07T07:51:05;3.40;;;1.05;;
53145;SDS011;39042;53.150;5.898;2024-01-07T07:53:31;1.10;;;0.30;;
53145;SDS011;39042;53.150;5.898;2024-01-07T07:55:56;3.67;;;0.87;;
53145;SDS011;39042;53.150;5.898;2024-01-07T07:58:22;2.73;;;0.97;;
53145;SDS011;39042;53.150;5.898;2024-01-07T08:00:49;1.27;;;0.60;;
53145;SDS011;39042;53.150;5.898;2024-01-07T08:03:15;2.33;;;0.60;;
53145;SDS011;39042;53.150;5.898;2024-01-07T08:05:41;1.60;;;0.53;;
53145;SDS011;39042;53.150;5.898;2024-01-07T08:08:07;1.58;;;0.80;;
53145;SDS011;39042;53.150;5.898;2024-01-07T08:10:33;3.50;;;1.42;;
53145;SDS011;39042;53.150;5.898;2024-01-07T08:13:00;3.90;;;0.95;;
53145;SDS011;39042;53.150;5.898;2024-01-07T08:15:26;2.25;;;0.75;;
53145;SDS011;39042;53.150;5.898;2024-01-07T08:17:52;3.57;;;0.60;;
53145;SDS011;39042;53.150;5.898;2024-01-07T08:20:18;2.57;;;1.20;;
53145;SDS011;39042;53.150;5.898;2024-01-07T08:22:47;2.25;;;0.70;;
53145;SDS011;39042;53.150;5.898;2024-01-07T08:25:12;2.73;;;1.20;;
53145;SDS011;39042;53.150;5.898;2024-01-07T08:27:40;4.85;;;1.50;;
53145;SDS011;39042;53.150;5.898;2024-01-07T08:30:06;5.18;;;1.85;;
53145;SDS011;39042;53.150;5.898;2024-01-07T08:32:33;7.05;;;2.25;;
53145;SDS011;39042;53.150;5.898;2024-01-07T08:35:00;4.05;;;1.33;;
53145;SDS011;39042;53.150;5.898;2024-01-07T08:37:26;7.38;;;2.28;;
53145;SDS011;39042;53.150;5.898;2024-01-07T08:39:52;4.13;;;1.80;;
53145;SDS011;39042;53.150;5.898;2024-01-07T08:42:18;6.67;;;2.10;;
53145;SDS011;39042;53.150;5.898;2024-01-07T08:44:44;7.28;;;1.90;;
53145;SDS011;39042;53.150;5.898;2024-01-07T08:47:10;10.93;;;2.97;;
53145;SDS011;39042;53.150;5.898;2024-01-07T08:49:36;4.93;;;1.67;;
53145;SDS011;39042;53.150;5.898;2024-01-07T08:52:04;4.03;;;1.73;;
53145;SDS011;39042;53.150;5.898;2024-01-07T08:54:30;4.28;;;1.92;;
53145;SDS011;39042;53.150;5.898;2024-01-07T08:56:56;3.07;;;1.30;;
53145;SDS011;39042;53.150;5.898;2024-01-07T08:59:21;4.17;;;1.30;;
53145;SDS011;39042;53.150;5.898;2024-01-07T09:01:47;2.27;;;0.90;;
53145;SDS011;39042;53.150;5.898;2024-01-07T09:04:13;1.27;;;0.60;;
53145;SDS011;39042;53.150;5.898;2024-01-07T09:06:39;4.17;;;1.17;;
53145;SDS011;39042;53.150;5.898;2024-01-07T09:09:05;2.50;;;0.77;;
53145;SDS011;39042;53.150;5.898;2024-01-07T09:11:31;2.30;;;0.90;;
53145;SDS011;39042;53.150;5.898;2024-01-07T09:13:57;1.50;;;0.68;;
53145;SDS011;39042;53.150;5.898;2024-01-07T09:16:24;3.45;;;0.60;;
53145;SDS011;39042;53.150;5.898;2024-01-07T09:18:49;0.73;;;0.47;;
53145;SDS011;39042;53.150;5.898;2024-01-07T09:21:16;2.00;;;0.80;;
53145;SDS011;39042;53.150;5.898;2024-01-07T09:23:43;2.43;;;0.83;;
53145;SDS011;39042;53.150;5.898;2024-01-07T09:26:09;4.82;;;0.98;;
53145;SDS011;39042;53.150;5.898;2024-01-07T09:28:35;3.27;;;0.93;;
53145;SDS011;39042;53.150;5.898;2024-01-07T09:31:01;1.80;;;0.70;;
53145;SDS011;39042;53.150;5.898;2024-01-07T09:33:26;4.60;;;0.53;;
53145;SDS011;39042;53.150;5.898;2024-01-07T09:35:52;1.60;;;1.00;;
53145;SDS011;39042;53.150;5.898;2024-01-07T09:38:21;4.90;;;0.93;;
53145;SDS011;39042;53.150;5.898;2024-01-07T09:40:47;1.50;;;0.70;;
53145;SDS011;39042;53.150;5.898;2024-01-07T09:43:13;1.20;;;0.60;;
53145;SDS011;39042;53.150;5.898;2024-01-07T09:45:38;2.83;;;0.50;;
53145;SDS011;39042;53.150;5.898;2024-01-07T09:48:09;1.20;;;0.60;;
53145;SDS011;39042;53.150;5.898;2024-01-07T09:50:35;2.93;;;1.13;;
53145;SDS011;39042;53.150;5.898;2024-01-07T09:53:01;2.83;;;0.80;;
53145;SDS011;39042;53.150;5.898;2024-01-07T09:55:32;3.15;;;0.88;;
53145;SDS011;39042;53.150;5.898;2024-01-07T09:58:01;3.20;;;0.80;;
53145;SDS011;39042;53.150;5.898;2024-01-07T10:00:27;2.85;;;0.73;;
53145;SDS011;39042;53.150;5.898;2024-01-07T10:02:54;2.08;;;0.88;;
53145;SDS011;39042;53.150;5.898;2024-01-07T10:05:20;1.30;;;0.63;;
53145;SDS011;39042;53.150;5.898;2024-01-07T10:07:46;4.28;;;1.58;;
53145;SDS011;39042;53.150;5.898;2024-01-07T10:10:13;2.87;;;0.80;;
53145;SDS011;39042;53.150;5.898;2024-01-07T10:12:46;4.78;;;2.28;;
53145;SDS011;39042;53.150;5.898;2024-01-07T10:15:13;2.03;;;0.60;;
53145;SDS011;39042;53.150;5.898;2024-01-07T10:17:42;4.38;;;1.50;;
53145;SDS011;39042;53.150;5.898;2024-01-07T10:20:08;6.97;;;1.90;;
53145;SDS011;39042;53.150;5.898;2024-01-07T10:22:38;3.70;;;1.70;;
53145;SDS011;39042;53.150;5.898;2024-01-07T10:25:05;4.00;;;1.05;;
53145;SDS011;39042;53.150;5.898;2024-01-07T10:27:35;3.55;;;1.20;;
53145;SDS011;39042;53.150;5.898;2024-01-07T10:32:30;2.78;;;0.90;;
53145;SDS011;39042;53.150;5.898;2024-01-07T10:35:03;3.60;;;1.42;;
53145;SDS011;39042;53.150;5.898;2024-01-07T10:37:30;3.42;;;1.33;;
53145;SDS011;39042;53.150;5.898;2024-01-07T10:39:59;4.28;;;0.82;;
53145;SDS011;39042;53.150;5.898;2024-01-07T10:42:31;1.60;;;1.10;;
53145;SDS011;39042;53.150;5.898;2024-01-07T10:44:59;4.25;;;1.20;;
53145;SDS011;39042;53.150;5.898;2024-01-07T10:47:27;5.78;;;2.25;;
53145;SDS011;39042;53.150;5.898;2024-01-07T10:49:56;2.33;;;1.00;;
53145;SDS011;39042;53.150;5.898;2024-01-07T10:52:25;3.25;;;1.40;;
53145;SDS011;39042;53.150;5.898;2024-01-07T10:54:52;3.53;;;2.10;;
53145;SDS011;39042;53.150;5.898;2024-01-07T10:57:24;5.90;;;2.50;;
53145;SDS011;39042;53.150;5.898;2024-01-07T11:00:00;4.18;;;1.48;;
53145;SDS011;39042;53.150;5.898;2024-01-07T11:02:31;6.38;;;2.90;;
53145;SDS011;39042;53.150;5.898;2024-01-07T11:05:14;4.15;;;2.20;;
53145;SDS011;39042;53.150;5.898;2024-01-07T11:08:05;6.68;;;2.70;;
53145;SDS011;39042;53.150;5.898;2024-01-07T11:10:41;4.88;;;2.10;;
53145;SDS011;39042;53.150;5.898;2024-01-07T11:13:31;3.28;;;1.77;;
53145;SDS011;39042;53.150;5.898;2024-01-07T11:16:04;3.78;;;2.97;;
53145;SDS011;39042;53.150;5.898;2024-01-07T11:18:46;5.70;;;1.10;;
53145;SDS011;39042;53.150;5.898;2024-01-07T11:21:25;3.40;;;1.10;;
53145;SDS011;39042;53.150;5.898;2024-01-07T11:23:51;3.65;;;1.40;;
53145;SDS011;39042;53.150;5.898;2024-01-07T11:28:55;2.35;;;1.38;;
53145;SDS011;39042;53.150;5.898;2024-01-07T11:34:07;5.80;;;1.85;;
53145;SDS011;39042;53.150;5.898;2024-01-07T11:36:37;2.60;;;1.33;;
53145;SDS011;39042;53.150;5.898;2024-01-07T11:39:06;4.35;;;1.73;;
53145;SDS011;39042;53.150;5.898;2024-01-07T11:41:34;4.15;;;1.75;;
53145;SDS011;39042;53.150;5.898;2024-01-07T11:44:01;3.13;;;1.27;;
53145;SDS011;39042;53.150;5.898;2024-01-07T11:46:28;4.05;;;1.40;;
53145;SDS011;39042;53.150;5.898;2024-01-07T11:48:56;5.22;;;1.30;;
53145;SDS011;39042;53.150;5.898;2024-01-07T11:51:27;5.82;;;1.42;;
53145;SDS011;39042;53.150;5.898;2024-01-07T11:53:54;3.92;;;1.42;;
53145;SDS011;39042;53.150;5.898;2024-01-07T11:56:20;3.10;;;1.30;;
53145;SDS011;39042;53.150;5.898;2024-01-07T11:58:46;2.80;;;1.00;;
53145;SDS011;39042;53.150;5.898;2024-01-07T12:01:14;4.30;;;1.30;;
53145;SDS011;39042;53.150;5.898;2024-01-07T12:03:40;4.43;;;1.20;;
53145;SDS011;39042;53.150;5.898;2024-01-07T12:06:09;5.68;;;1.65;;
53145;SDS011;39042;53.150;5.898;2024-01-07T12:08:45;4.78;;;1.15;;
53145;SDS011;39042;53.150;5.898;2024-01-07T12:11:12;3.78;;;1.35;;
53145;SDS011;39042;53.150;5.898;2024-01-07T12:13:39;3.40;;;1.35;;
53145;SDS011;39042;53.150;5.898;2024-01-07T12:16:05;6.50;;;2.42;;
53145;SDS011;39042;53.150;5.898;2024-01-07T12:18:32;7.57;;;2.85;;
53145;SDS011;39042;53.150;5.898;2024-01-07T12:20:59;3.70;;;1.30;;
53145;SDS011;39042;53.150;5.898;2024-01-07T12:25:54;5.28;;;1.77;;
53145;SDS011;39042;53.150;5.898;2024-01-07T12:28:31;6.75;;;2.17;;
53145;SDS011;39042;53.150;5.898;2024-01-07T12:30:57;7.90;;;2.57;;
53145;SDS011;39042;53.150;5.898;2024-01-07T12:33:25;12.93;;;3.58;;
53145;SDS011;39042;53.150;5.898;2024-01-07T12:35:51;3.53;;;1.38;;
53145;SDS011;39042;53.150;5.898;2024-01-07T12:38:22;4.77;;;2.10;;
53145;SDS011;39042;53.150;5.898;2024-01-07T12:40:55;3.45;;;1.70;;
53145;SDS011;39042;53.150;5.898;2024-01-07T12:45:48;4.47;;;1.33;;
53145;SDS011;39042;53.150;5.898;2024-01-07T12:48:14;5.68;;;1.70;;
53145;SDS011;39042;53.150;5.898;2024-01-07T12:50:40;3.40;;;1.42;;
53145;SDS011;39042;53.150;5.898;2024-01-07T12:53:06;5.80;;;2.65;;
53145;SDS011;39042;53.150;5.898;2024-01-07T12:55:32;6.80;;;1.83;;
53145;SDS011;39042;53.150;5.898;2024-01-07T12:57:58;10.57;;;2.53;;
53145;SDS011;39042;53.150;5.898;2024-01-07T13:00:24;3.43;;;1.40;;
53145;SDS011;39042;53.150;5.898;2024-01-07T13:02:53;4.70;;;1.55;;
53145;SDS011;39042;53.150;5.898;2024-01-07T13:05:19;6.30;;;2.13;;
53145;SDS011;39042;53.150;5.898;2024-01-07T13:07:46;5.45;;;2.17;;
53145;SDS011;39042;53.150;5.898;2024-01-07T13:10:12;3.97;;;1.55;;
53145;SDS011;39042;53.150;5.898;2024-01-07T13:12:39;5.00;;;1.33;;
53145;SDS011;39042;53.150;5.898;2024-01-07T13:15:05;6.40;;;1.73;;
53145;SDS011;39042;53.150;5.898;2024-01-07T13:17:31;2.95;;;1.25;;
53145;SDS011;39042;53.150;5.898;2024-01-07T13:22:24;3.35;;;1.40;;
53145;SDS011;39042;53.150;5.898;2024-01-07T13:24:49;7.93;;;1.80;;
53145;SDS011;39042;53.150;5.898;2024-01-07T13:27:15;1.53;;;0.87;;
53145;SDS011;39042;53.150;5.898;2024-01-07T13:29:44;4.47;;;1.48;;
53145;SDS011;39042;53.150;5.898;2024-01-07T13:32:15;2.97;;;1.45;;
53145;SDS011;39042;53.150;5.898;2024-01-07T13:34:44;5.47;;;2.20;;
53145;SDS011;39042;53.150;5.898;2024-01-07T13:37:10;4.90;;;1.55;;
53145;SDS011;39042;53.150;5.898;2024-01-07T13:39:35;2.53;;;1.20;;
53145;SDS011;39042;53.150;5.898;2024-01-07T13:42:01;4.40;;;1.30;;
53145;SDS011;39042;53.150;5.898;2024-01-07T13:44:28;2.85;;;1.23;;
53145;SDS011;39042;53.150;5.898;2024-01-07T13:46:54;5.30;;;1.33;;
53145;SDS011;39042;53.150;5.898;2024-01-07T13:49:19;3.78;;;1.42;;
53145;SDS011;39042;53.150;5.898;2024-01-07T13:51:45;3.90;;;1.73;;
53145;SDS011;39042;53.150;5.898;2024-01-07T13:54:11;5.07;;;1.30;;
53145;SDS011;39042;53.150;5.898;2024-01-07T13:56:40;3.13;;;1.45;;
53145;SDS011;39042;53.150;5.898;2024-01-07T13:59:08;2.85;;;1.20;;
53145;SDS011;39042;53.150;5.898;2024-01-07T14:01:34;4.57;;;1.67;;
53145;SDS011;39042;53.150;5.898;2024-01-07T14:04:00;1.65;;;0.90;;
53145;SDS011;39042;53.150;5.898;2024-01-07T14:06:26;4.45;;;1.92;;
53145;SDS011;39042;53.150;5.898;2024-01-07T14:08:52;6.30;;;1.53;;
53145;SDS011;39042;53.150;5.898;2024-01-07T14:11:18;4.47;;;1.55;;
53145;SDS011;39042;53.150;5.898;2024-01-07T14:13:45;6.13;;;1.50;;
53145;SDS011;39042;53.150;5.898;2024-01-07T14:16:12;4.30;;;1.52;;
53145;SDS011;39042;53.150;5.898;2024-01-07T14:18:38;2.60;;;0.85;;
53145;SDS011;39042;53.150;5.898;2024-01-07T14:21:04;5.10;;;1.48;;
53145;SDS011;39042;53.150;5.898;2024-01-07T14:23:31;7.25;;;1.50;;
53145;SDS011;39042;53.150;5.898;2024-01-07T14:25:59;2.58;;;1.15;;
53145;SDS011;39042;53.150;5.898;2024-01-07T14:28:25;4.28;;;1.60;;
53145;SDS011;39042;53.150;5.898;2024-01-07T14:30:51;6.38;;;1.85;;
53145;SDS011;39042;53.150;5.898;2024-01-07T14:33:16;4.47;;;1.77;;
53145;SDS011;39042;53.150;5.898;2024-01-07T14:35:42;6.00;;;2.33;;
53145;SDS011;39042;53.150;5.898;2024-01-07T14:38:08;2.83;;;1.50;;
53145;SDS011;39042;53.150;5.898;2024-01-07T14:40:34;5.60;;;1.70;;
53145;SDS011;39042;53.150;5.898;2024-01-07T14:43:00;6.17;;;1.57;;
53145;SDS011;39042;53.150;5.898;2024-01-07T14:45:26;6.93;;;2.27;;
53145;SDS011;39042;53.150;5.898;2024-01-07T14:47:52;5.10;;;1.80;;
53145;SDS011;39042;53.150;5.898;2024-01-07T14:50:19;6.25;;;2.22;;
53145;SDS011;39042;53.150;5.898;2024-01-07T14:55:12;26.13;;;15.35;;
53145;SDS011;39042;53.150;5.898;2024-01-07T14:57:41;12.88;;;5.50;;
53145;SDS011;39042;53.150;5.898;2024-01-07T15:00:07;12.02;;;4.85;;
53145;SDS011;39042;53.150;5.898;2024-01-07T15:02:34;11.15;;;4.85;;
53145;SDS011;39042;53.150;5.898;2024-01-07T15:05:00;13.07;;;3.45;;
53145;SDS011;39042;53.150;5.898;2024-01-07T15:07:28;7.43;;;3.75;;
53145;SDS011;39042;53.150;5.898;2024-01-07T15:09:54;11.85;;;5.55;;
53145;SDS011;39042;53.150;5.898;2024-01-07T15:12:20;8.03;;;4.80;;
53145;SDS011;39042;53.150;5.898;2024-01-07T15:14:47;8.02;;;4.72;;